sensor_id;sensor_type;location;lat;lon;timestamp;temperature;humidity
7331;DHT22;3706;49.198;7.064;2023-11-19T00:01:56;8.40;99.90
7331;DHT22;3706;49.198;7.064;2023-11-19T00:05:35;8.40;99.90
7331;DHT22;3706;49.198;7.064;2023-11-19T00:09:13;8.40;99.90
7331;DHT22;3706;49.198;7.064;2023-11-19T00:12:50;8.40;99.90
7331;DHT22;3706;49.198;7.064;2023-11-19T00:16:24;8.50;99.90
7331;DHT22;3706;49.198;7.064;2023-11-19T00:20:03;8.50;99.90
7331;DHT22;3706;49.198;7.064;2023-11-19T00:23:43;8.50;99.90
7331;DHT22;3706;49.198;7.064;2023-11-19T00:27:17;8.50;99.90
7331;DHT22;3706;49.198;7.064;2023-11-19T00:30:49;8.50;99.90
7331;DHT22;3706;49.198;7.064;2023-11-19T00:34:29;8.50;99.90
7331;DHT22;3706;49.198;7.064;2023-11-19T00:38:08;8.50;99.90
7331;DHT22;3706;49.198;7.064;2023-11-19T00:41:42;8.60;99.90
7331;DHT22;3706;49.198;7.064;2023-11-19T00:45:16;8.60;99.90
7331;DHT22;3706;49.198;7.064;2023-11-19T00:48:55;8.60;99.90
7331;DHT22;3706;49.198;7.064;2023-11-19T00:52:38;8.60;99.90
7331;DHT22;3706;49.198;7.064;2023-11-19T00:56:13;8.60;99.90
7331;DHT22;3706;49.198;7.064;2023-11-19T00:59:46;8.60;99.90
7331;DHT22;3706;49.198;7.064;2023-11-19T01:03:25;8.70;99.90
7331;DHT22;3706;49.198;7.064;2023-11-19T01:07:04;8.70;99.90
7331;DHT22;3706;49.198;7.064;2023-11-19T01:10:40;8.80;99.90
7331;DHT22;3706;49.198;7.064;2023-11-19T01:14:11;8.90;99.90
7331;DHT22;3706;49.198;7.064;2023-11-19T01:17:50;8.80;99.90
7331;DHT22;3706;49.198;7.064;2023-11-19T01:21:29;8.90;99.90
7331;DHT22;3706;49.198;7.064;2023-11-19T01:25:03;8.90;99.90
7331;DHT22;3706;49.198;7.064;2023-11-19T01:28:37;8.90;99.90
7331;DHT22;3706;49.198;7.064;2023-11-19T01:32:17;8.90;99.90
7331;DHT22;3706;49.198;7.064;2023-11-19T01:35:56;8.90;99.90
7331;DHT22;3706;49.198;7.064;2023-11-19T01:39:31;9.00;99.90
7331;DHT22;3706;49.198;7.064;2023-11-19T01:43:03;9.00;99.90
7331;DHT22;3706;49.198;7.064;2023-11-19T01:46:44;9.00;99.90
7331;DHT22;3706;49.198;7.064;2023-11-19T01:50:25;9.10;99.90
7331;DHT22;3706;49.198;7.064;2023-11-19T01:54:00;9.10;99.90
7331;DHT22;3706;49.198;7.064;2023-11-19T01:57:32;9.20;99.90
7331;DHT22;3706;49.198;7.064;2023-11-19T02:01:12;9.20;99.90
7331;DHT22;3706;49.198;7.064;2023-11-19T02:04:53;9.20;99.90
7331;DHT22;3706;49.198;7.064;2023-11-19T02:08:29;9.20;99.90
7331;DHT22;3706;49.198;7.064;2023-11-19T02:12:00;9.20;99.90
7331;DHT22;3706;49.198;7.064;2023-11-19T02:15:41;9.30;99.90
7331;DHT22;3706;49.198;7.064;2023-11-19T02:19:20;9.30;99.90
7331;DHT22;3706;49.198;7.064;2023-11-19T02:22:55;9.30;99.90
7331;DHT22;3706;49.198;7.064;2023-11-19T02:26:44;9.30;99.90
7331;DHT22;3706;49.198;7.064;2023-11-19T02:30:27;9.30;99.90
7331;DHT22;3706;49.198;7.064;2023-11-19T02:34:06;9.40;99.90
7331;DHT22;3706;49.198;7.064;2023-11-19T02:37:40;9.40;99.90
7331;DHT22;3706;49.198;7.064;2023-11-19T02:41:14;9.40;99.90
7331;DHT22;3706;49.198;7.064;2023-11-19T02:44:53;9.50;99.90
7331;DHT22;3706;49.198;7.064;2023-11-19T02:48:33;9.50;99.90
7331;DHT22;3706;49.198;7.064;2023-11-19T02:52:08;9.60;99.90
7331;DHT22;3706;49.198;7.064;2023-11-19T02:55:40;9.60;99.90
7331;DHT22;3706;49.198;7.064;2023-11-19T02:59:25;9.60;99.90
7331;DHT22;3706;49.198;7.064;2023-11-19T03:03:09;9.70;99.90
7331;DHT22;3706;49.198;7.064;2023-11-19T03:06:54;9.70;99.90
7331;DHT22;3706;49.198;7.064;2023-11-19T03:10:25;9.70;99.90
7331;DHT22;3706;49.198;7.064;2023-11-19T03:14:04;9.70;99.90
7331;DHT22;3706;49.198;7.064;2023-11-19T03:17:43;9.70;99.90
7331;DHT22;3706;49.198;7.064;2023-11-19T03:21:18;9.70;99.90
7331;DHT22;3706;49.198;7.064;2023-11-19T03:24:52;9.70;99.90
7331;DHT22;3706;49.198;7.064;2023-11-19T03:28:31;9.70;99.90
7331;DHT22;3706;49.198;7.064;2023-11-19T03:32:10;9.70;99.90
7331;DHT22;3706;49.198;7.064;2023-11-19T03:35:45;9.80;99.90
7331;DHT22;3706;49.198;7.064;2023-11-19T03:39:16;9.80;99.90
7331;DHT22;3706;49.198;7.064;2023-11-19T03:42:57;9.80;99.90
7331;DHT22;3706;49.198;7.064;2023-11-19T03:46:39;9.80;99.90
7331;DHT22;3706;49.198;7.064;2023-11-19T03:50:13;9.80;99.90
7331;DHT22;3706;49.198;7.064;2023-11-19T03:53:46;9.80;99.90
7331;DHT22;3706;49.198;7.064;2023-11-19T03:57:27;9.80;99.90
7331;DHT22;3706;49.198;7.064;2023-11-19T04:01:11;9.70;99.90
7331;DHT22;3706;49.198;7.064;2023-11-19T04:04:46;9.70;99.90
7331;DHT22;3706;49.198;7.064;2023-11-19T04:08:18;9.70;99.90
7331;DHT22;3706;49.198;7.064;2023-11-19T04:11:57;9.70;99.90
7331;DHT22;3706;49.198;7.064;2023-11-19T04:15:36;9.80;99.90
7331;DHT22;3706;49.198;7.064;2023-11-19T04:19:11;9.80;99.90
7331;DHT22;3706;49.198;7.064;2023-11-19T04:22:43;9.80;99.90
7331;DHT22;3706;49.198;7.064;2023-11-19T04:26:21;9.80;99.90
7331;DHT22;3706;49.198;7.064;2023-11-19T04:30:01;9.90;99.90
7331;DHT22;3706;49.198;7.064;2023-11-19T04:33:37;9.90;99.90
7331;DHT22;3706;49.198;7.064;2023-11-19T04:37:10;9.90;99.90
7331;DHT22;3706;49.198;7.064;2023-11-19T04:40:48;10.00;99.90
7331;DHT22;3706;49.198;7.064;2023-11-19T04:44:27;10.00;99.90
7331;DHT22;3706;49.198;7.064;2023-11-19T04:48:02;10.00;99.90
7331;DHT22;3706;49.198;7.064;2023-11-19T04:51:38;10.10;99.90
7331;DHT22;3706;49.198;7.064;2023-11-19T04:55:18;10.10;99.90
7331;DHT22;3706;49.198;7.064;2023-11-19T04:58:57;10.20;99.90
7331;DHT22;3706;49.198;7.064;2023-11-19T05:02:31;10.20;99.90
7331;DHT22;3706;49.198;7.064;2023-11-19T05:06:04;10.30;99.90
7331;DHT22;3706;49.198;7.064;2023-11-19T05:09:43;10.20;99.90
7331;DHT22;3706;49.198;7.064;2023-11-19T05:13:23;10.30;99.90
7331;DHT22;3706;49.198;7.064;2023-11-19T05:16:58;10.30;99.90
7331;DHT22;3706;49.198;7.064;2023-11-19T05:20:29;10.30;99.90
7331;DHT22;3706;49.198;7.064;2023-11-19T05:24:08;10.40;99.90
7331;DHT22;3706;49.198;7.064;2023-11-19T05:27:47;10.40;99.90
7331;DHT22;3706;49.198;7.064;2023-11-19T05:31:22;10.40;99.90
7331;DHT22;3706;49.198;7.064;2023-11-19T05:34:53;10.50;99.90
7331;DHT22;3706;49.198;7.064;2023-11-19T05:38:32;10.50;99.90
7331;DHT22;3706;49.198;7.064;2023-11-19T05:42:12;10.50;99.90
7331;DHT22;3706;49.198;7.064;2023-11-19T05:45:47;10.60;99.90
7331;DHT22;3706;49.198;7.064;2023-11-19T05:49:20;10.60;99.90
7331;DHT22;3706;49.198;7.064;2023-11-19T05:52:58;10.70;99.90
7331;DHT22;3706;49.198;7.064;2023-11-19T05:56:38;10.70;99.90
7331;DHT22;3706;49.198;7.064;2023-11-19T06:00:13;10.80;99.90
7331;DHT22;3706;49.198;7.064;2023-11-19T06:03:45;10.80;99.90
7331;DHT22;3706;49.198;7.064;2023-11-19T06:07:28;10.80;99.90
7331;DHT22;3706;49.198;7.064;2023-11-19T06:11:07;10.80;99.90
7331;DHT22;3706;49.198;7.064;2023-11-19T06:14:41;10.80;99.90
7331;DHT22;3706;49.198;7.064;2023-11-19T06:18:13;10.80;99.90
7331;DHT22;3706;49.198;7.064;2023-11-19T06:21:52;10.70;99.90
7331;DHT22;3706;49.198;7.064;2023-11-19T06:25:32;10.70;99.90
7331;DHT22;3706;49.198;7.064;2023-11-19T06:29:08;10.70;99.90
7331;DHT22;3706;49.198;7.064;2023-11-19T06:32:39;10.70;99.90
7331;DHT22;3706;49.198;7.064;2023-11-19T06:36:18;10.80;99.90
7331;DHT22;3706;49.198;7.064;2023-11-19T06:39:57;10.80;99.90
7331;DHT22;3706;49.198;7.064;2023-11-19T06:43:32;10.90;99.90
7331;DHT22;3706;49.198;7.064;2023-11-19T06:47:04;11.00;99.90
7331;DHT22;3706;49.198;7.064;2023-11-19T06:50:43;11.00;99.90
7331;DHT22;3706;49.198;7.064;2023-11-19T06:54:25;11.00;99.90
7331;DHT22;3706;49.198;7.064;2023-11-19T06:58:00;11.00;99.90
7331;DHT22;3706;49.198;7.064;2023-11-19T07:01:39;11.00;99.90
7331;DHT22;3706;49.198;7.064;2023-11-19T07:05:21;11.00;99.90
7331;DHT22;3706;49.198;7.064;2023-11-19T07:09:01;11.00;99.90
7331;DHT22;3706;49.198;7.064;2023-11-19T07:12:42;11.10;99.90
7331;DHT22;3706;49.198;7.064;2023-11-19T07:16:14;11.20;99.90
7331;DHT22;3706;49.198;7.064;2023-11-19T07:19:55;11.20;99.90
7331;DHT22;3706;49.198;7.064;2023-11-19T07:23:37;11.20;99.90
7331;DHT22;3706;49.198;7.064;2023-11-19T07:27:11;11.20;99.90
7331;DHT22;3706;49.198;7.064;2023-11-19T07:30:44;11.20;99.90
7331;DHT22;3706;49.198;7.064;2023-11-19T07:34:24;11.20;99.90
7331;DHT22;3706;49.198;7.064;2023-11-19T07:38:04;11.20;99.90
7331;DHT22;3706;49.198;7.064;2023-11-19T07:41:38;11.30;99.90
7331;DHT22;3706;49.198;7.064;2023-11-19T07:45:10;11.30;99.90
7331;DHT22;3706;49.198;7.064;2023-11-19T07:48:49;11.40;99.90
7331;DHT22;3706;49.198;7.064;2023-11-19T07:52:27;11.40;99.90
7331;DHT22;3706;49.198;7.064;2023-11-19T07:56:04;11.50;99.90
7331;DHT22;3706;49.198;7.064;2023-11-19T07:59:35;11.60;99.90
7331;DHT22;3706;49.198;7.064;2023-11-19T08:03:14;11.70;99.90
7331;DHT22;3706;49.198;7.064;2023-11-19T08:06:54;11.80;99.90
7331;DHT22;3706;49.198;7.064;2023-11-19T08:10:29;11.90;99.90
7331;DHT22;3706;49.198;7.064;2023-11-19T08:14:01;12.00;99.90
7331;DHT22;3706;49.198;7.064;2023-11-19T08:17:40;12.00;99.90
7331;DHT22;3706;49.198;7.064;2023-11-19T08:21:20;12.10;99.90
7331;DHT22;3706;49.198;7.064;2023-11-19T08:24:55;12.10;99.90
7331;DHT22;3706;49.198;7.064;2023-11-19T08:28:29;12.10;99.90
7331;DHT22;3706;49.198;7.064;2023-11-19T08:32:10;12.10;99.90
7331;DHT22;3706;49.198;7.064;2023-11-19T08:35:48;12.10;99.90
7331;DHT22;3706;49.198;7.064;2023-11-19T08:39:23;12.10;99.90
7331;DHT22;3706;49.198;7.064;2023-11-19T08:42:55;12.10;99.90
7331;DHT22;3706;49.198;7.064;2023-11-19T08:46:33;12.20;99.90
7331;DHT22;3706;49.198;7.064;2023-11-19T08:50:14;12.30;99.90
7331;DHT22;3706;49.198;7.064;2023-11-19T08:53:48;12.30;99.90
7331;DHT22;3706;49.198;7.064;2023-11-19T08:57:19;12.30;99.90
7331;DHT22;3706;49.198;7.064;2023-11-19T09:00:58;12.20;99.90
7331;DHT22;3706;49.198;7.064;2023-11-19T09:04:37;12.20;99.90
7331;DHT22;3706;49.198;7.064;2023-11-19T09:08:12;12.20;99.90
7331;DHT22;3706;49.198;7.064;2023-11-19T09:11:43;12.20;99.90
7331;DHT22;3706;49.198;7.064;2023-11-19T09:15:22;12.30;99.90
7331;DHT22;3706;49.198;7.064;2023-11-19T09:19:02;12.50;99.90
7331;DHT22;3706;49.198;7.064;2023-11-19T09:22:37;12.80;99.90
7331;DHT22;3706;49.198;7.064;2023-11-19T09:26:10;13.40;99.90
7331;DHT22;3706;49.198;7.064;2023-11-19T09:29:48;13.80;99.90
7331;DHT22;3706;49.198;7.064;2023-11-19T09:33:33;14.00;99.90
7331;DHT22;3706;49.198;7.064;2023-11-19T09:37:08;14.00;99.90
7331;DHT22;3706;49.198;7.064;2023-11-19T09:40:39;13.90;99.90
7331;DHT22;3706;49.198;7.064;2023-11-19T09:44:19;14.00;99.90
7331;DHT22;3706;49.198;7.064;2023-11-19T09:48:00;14.30;99.90
7331;DHT22;3706;49.198;7.064;2023-11-19T09:51:35;15.00;99.90
7331;DHT22;3706;49.198;7.064;2023-11-19T09:55:08;15.30;99.90
7331;DHT22;3706;49.198;7.064;2023-11-19T09:58:46;15.50;99.90
7331;DHT22;3706;49.198;7.064;2023-11-19T10:02:28;15.70;99.90
7331;DHT22;3706;49.198;7.064;2023-11-19T10:06:06;15.80;99.90
7331;DHT22;3706;49.198;7.064;2023-11-19T10:09:38;15.70;99.90
7331;DHT22;3706;49.198;7.064;2023-11-19T10:13:17;15.40;99.90
7331;DHT22;3706;49.198;7.064;2023-11-19T10:16:56;15.30;99.90
7331;DHT22;3706;49.198;7.064;2023-11-19T10:20:36;15.70;99.90
7331;DHT22;3706;49.198;7.064;2023-11-19T10:24:08;15.70;99.90
7331;DHT22;3706;49.198;7.064;2023-11-19T10:27:47;15.40;99.90
7331;DHT22;3706;49.198;7.064;2023-11-19T10:31:26;14.90;99.90
7331;DHT22;3706;49.198;7.064;2023-11-19T10:35:05;14.40;99.90
7331;DHT22;3706;49.198;7.064;2023-11-19T10:38:38;14.00;99.90
7331;DHT22;3706;49.198;7.064;2023-11-19T10:42:17;13.80;99.90
7331;DHT22;3706;49.198;7.064;2023-11-19T10:46:09;13.60;99.90
7331;DHT22;3706;49.198;7.064;2023-11-19T10:49:44;13.70;99.90
7331;DHT22;3706;49.198;7.064;2023-11-19T10:53:18;14.30;99.90
7331;DHT22;3706;49.198;7.064;2023-11-19T10:56:59;14.60;99.90
7331;DHT22;3706;49.198;7.064;2023-11-19T11:00:43;15.20;99.90
7331;DHT22;3706;49.198;7.064;2023-11-19T11:04:23;16.10;99.90
7331;DHT22;3706;49.198;7.064;2023-11-19T11:07:55;16.20;99.90
7331;DHT22;3706;49.198;7.064;2023-11-19T11:11:35;15.90;99.90
7331;DHT22;3706;49.198;7.064;2023-11-19T11:15:18;15.70;99.90
7331;DHT22;3706;49.198;7.064;2023-11-19T11:18:53;15.90;99.90
7331;DHT22;3706;49.198;7.064;2023-11-19T11:22:26;16.50;99.90
7331;DHT22;3706;49.198;7.064;2023-11-19T11:26:21;16.90;99.90
7331;DHT22;3706;49.198;7.064;2023-11-19T11:30:11;17.00;99.90
7331;DHT22;3706;49.198;7.064;2023-11-19T11:34:21;16.70;99.90
7331;DHT22;3706;49.198;7.064;2023-11-19T11:38:01;16.20;99.90
7331;DHT22;3706;49.198;7.064;2023-11-19T11:41:41;15.90;99.90
7331;DHT22;3706;49.198;7.064;2023-11-19T11:45:35;15.60;99.90
7331;DHT22;3706;49.198;7.064;2023-11-19T11:49:12;15.40;99.90
7331;DHT22;3706;49.198;7.064;2023-11-19T11:53:13;15.30;99.90
7331;DHT22;3706;49.198;7.064;2023-11-19T11:57:06;15.60;99.90
7331;DHT22;3706;49.198;7.064;2023-11-19T12:00:46;16.00;99.90
7331;DHT22;3706;49.198;7.064;2023-11-19T12:04:26;16.50;99.90
7331;DHT22;3706;49.198;7.064;2023-11-19T12:07:59;16.80;99.90
7331;DHT22;3706;49.198;7.064;2023-11-19T12:11:38;17.10;99.90
7331;DHT22;3706;49.198;7.064;2023-11-19T12:15:25;17.10;99.90
7331;DHT22;3706;49.198;7.064;2023-11-19T12:19:03;16.90;99.90
7331;DHT22;3706;49.198;7.064;2023-11-19T12:22:38;17.00;99.90
7331;DHT22;3706;49.198;7.064;2023-11-19T12:26:33;17.20;99.90
7331;DHT22;3706;49.198;7.064;2023-11-19T12:30:16;17.60;99.90
7331;DHT22;3706;49.198;7.064;2023-11-19T12:33:51;17.90;99.90
7331;DHT22;3706;49.198;7.064;2023-11-19T12:37:22;17.80;99.90
7331;DHT22;3706;49.198;7.064;2023-11-19T12:41:07;17.50;99.90
7331;DHT22;3706;49.198;7.064;2023-11-19T12:44:54;17.10;99.90
7331;DHT22;3706;49.198;7.064;2023-11-19T12:48:30;16.60;99.90
7331;DHT22;3706;49.198;7.064;2023-11-19T12:52:01;16.20;99.90
7331;DHT22;3706;49.198;7.064;2023-11-19T12:55:41;15.70;99.90
7331;DHT22;3706;49.198;7.064;2023-11-19T12:59:22;15.50;99.90
7331;DHT22;3706;49.198;7.064;2023-11-19T13:02:57;15.30;99.90
7331;DHT22;3706;49.198;7.064;2023-11-19T13:06:29;15.30;99.90
7331;DHT22;3706;49.198;7.064;2023-11-19T13:10:09;15.20;99.90
7331;DHT22;3706;49.198;7.064;2023-11-19T13:13:56;15.10;99.90
7331;DHT22;3706;49.198;7.064;2023-11-19T13:17:32;15.10;99.90
7331;DHT22;3706;49.198;7.064;2023-11-19T13:21:03;15.20;99.90
7331;DHT22;3706;49.198;7.064;2023-11-19T13:24:43;15.30;99.90
7331;DHT22;3706;49.198;7.064;2023-11-19T13:28:22;15.40;99.90
7331;DHT22;3706;49.198;7.064;2023-11-19T13:31:56;15.30;99.90
7331;DHT22;3706;49.198;7.064;2023-11-19T13:35:30;15.20;99.90
7331;DHT22;3706;49.198;7.064;2023-11-19T13:39:09;15.10;99.90
7331;DHT22;3706;49.198;7.064;2023-11-19T13:42:49;14.90;99.90
7331;DHT22;3706;49.198;7.064;2023-11-19T13:46:24;14.70;99.90
7331;DHT22;3706;49.198;7.064;2023-11-19T13:49:56;14.40;99.90
7331;DHT22;3706;49.198;7.064;2023-11-19T13:53:36;14.30;99.90
7331;DHT22;3706;49.198;7.064;2023-11-19T13:57:15;14.10;99.90
7331;DHT22;3706;49.198;7.064;2023-11-19T14:00:49;13.90;99.90
7331;DHT22;3706;49.198;7.064;2023-11-19T14:04:20;13.70;99.90
7331;DHT22;3706;49.198;7.064;2023-11-19T14:07:59;13.50;99.90
7331;DHT22;3706;49.198;7.064;2023-11-19T14:11:40;13.50;99.90
7331;DHT22;3706;49.198;7.064;2023-11-19T14:15:16;13.50;99.90
7331;DHT22;3706;49.198;7.064;2023-11-19T14:18:48;13.50;99.90
7331;DHT22;3706;49.198;7.064;2023-11-19T14:22:27;13.40;99.90
7331;DHT22;3706;49.198;7.064;2023-11-19T14:26:07;13.40;99.90
7331;DHT22;3706;49.198;7.064;2023-11-19T14:29:46;13.40;99.90
7331;DHT22;3706;49.198;7.064;2023-11-19T14:33:17;13.30;99.90
7331;DHT22;3706;49.198;7.064;2023-11-19T14:36:57;13.20;99.90
7331;DHT22;3706;49.198;7.064;2023-11-19T14:40:37;13.10;99.90
7331;DHT22;3706;49.198;7.064;2023-11-19T14:44:12;13.00;99.90
7331;DHT22;3706;49.198;7.064;2023-11-19T14:47:45;13.00;99.90
7331;DHT22;3706;49.198;7.064;2023-11-19T14:51:24;12.80;99.90
7331;DHT22;3706;49.198;7.064;2023-11-19T14:55:03;12.60;99.90
7331;DHT22;3706;49.198;7.064;2023-11-19T14:58:38;12.40;99.90
7331;DHT22;3706;49.198;7.064;2023-11-19T15:02:09;12.40;99.90
7331;DHT22;3706;49.198;7.064;2023-11-19T15:05:49;12.40;99.90
7331;DHT22;3706;49.198;7.064;2023-11-19T15:09:28;12.40;99.90
7331;DHT22;3706;49.198;7.064;2023-11-19T15:13:03;12.30;99.90
7331;DHT22;3706;49.198;7.064;2023-11-19T15:16:34;12.20;99.90
7331;DHT22;3706;49.198;7.064;2023-11-19T15:20:13;12.00;99.90
7331;DHT22;3706;49.198;7.064;2023-11-19T15:23:57;11.80;99.90
7331;DHT22;3706;49.198;7.064;2023-11-19T15:27:32;11.50;99.90
7331;DHT22;3706;49.198;7.064;2023-11-19T15:31:04;11.30;99.90
7331;DHT22;3706;49.198;7.064;2023-11-19T15:34:43;11.20;99.90
7331;DHT22;3706;49.198;7.064;2023-11-19T15:38:21;11.20;99.90
7331;DHT22;3706;49.198;7.064;2023-11-19T15:41:57;11.20;99.90
7331;DHT22;3706;49.198;7.064;2023-11-19T15:45:29;11.10;99.90
7331;DHT22;3706;49.198;7.064;2023-11-19T15:49:08;11.10;99.90
7331;DHT22;3706;49.198;7.064;2023-11-19T15:52:47;11.30;99.90
7331;DHT22;3706;49.198;7.064;2023-11-19T15:56:22;11.30;99.90
7331;DHT22;3706;49.198;7.064;2023-11-19T15:59:55;11.40;99.90
7331;DHT22;3706;49.198;7.064;2023-11-19T16:03:34;11.40;99.90
7331;DHT22;3706;49.198;7.064;2023-11-19T16:07:12;11.40;99.90
7331;DHT22;3706;49.198;7.064;2023-11-19T16:10:47;11.40;99.90
7331;DHT22;3706;49.198;7.064;2023-11-19T16:14:19;11.40;99.90
7331;DHT22;3706;49.198;7.064;2023-11-19T16:17:59;11.50;99.90
7331;DHT22;3706;49.198;7.064;2023-11-19T16:21:38;11.40;99.90
7331;DHT22;3706;49.198;7.064;2023-11-19T16:25:12;11.30;99.90
7331;DHT22;3706;49.198;7.064;2023-11-19T16:28:45;11.00;99.90
7331;DHT22;3706;49.198;7.064;2023-11-19T16:32:23;10.90;99.90
7331;DHT22;3706;49.198;7.064;2023-11-19T16:36:05;10.70;99.90
7331;DHT22;3706;49.198;7.064;2023-11-19T16:39:41;10.50;99.90
7331;DHT22;3706;49.198;7.064;2023-11-19T16:43:12;10.40;99.90
7331;DHT22;3706;49.198;7.064;2023-11-19T16:46:51;10.40;99.90
7331;DHT22;3706;49.198;7.064;2023-11-19T16:50:29;10.50;99.90
7331;DHT22;3706;49.198;7.064;2023-11-19T16:54:05;10.50;99.90
7331;DHT22;3706;49.198;7.064;2023-11-19T16:57:37;10.50;99.90
7331;DHT22;3706;49.198;7.064;2023-11-19T17:01:16;10.30;99.90
7331;DHT22;3706;49.198;7.064;2023-11-19T17:04:56;10.20;99.90
7331;DHT22;3706;49.198;7.064;2023-11-19T17:08:30;10.00;99.90
7331;DHT22;3706;49.198;7.064;2023-11-19T17:12:06;9.80;99.90
7331;DHT22;3706;49.198;7.064;2023-11-19T17:15:45;9.70;99.90
7331;DHT22;3706;49.198;7.064;2023-11-19T17:19:24;9.70;99.90
7331;DHT22;3706;49.198;7.064;2023-11-19T17:22:59;9.80;99.90
7331;DHT22;3706;49.198;7.064;2023-11-19T17:26:30;9.80;99.90
7331;DHT22;3706;49.198;7.064;2023-11-19T17:30:12;9.70;99.90
7331;DHT22;3706;49.198;7.064;2023-11-19T17:33:51;9.60;99.90
7331;DHT22;3706;49.198;7.064;2023-11-19T17:37:25;9.70;99.90
7331;DHT22;3706;49.198;7.064;2023-11-19T17:41:33;9.70;99.90
7331;DHT22;3706;49.198;7.064;2023-11-19T17:45:14;9.70;99.90
7331;DHT22;3706;49.198;7.064;2023-11-19T17:48:53;9.60;99.90
7331;DHT22;3706;49.198;7.064;2023-11-19T17:52:31;9.80;99.90
7331;DHT22;3706;49.198;7.064;2023-11-19T17:56:04;10.00;99.90
7331;DHT22;3706;49.198;7.064;2023-11-19T17:59:43;10.00;99.90
7331;DHT22;3706;49.198;7.064;2023-11-19T18:03:25;10.00;99.90
7331;DHT22;3706;49.198;7.064;2023-11-19T18:07:00;10.00;99.90
7331;DHT22;3706;49.198;7.064;2023-11-19T18:10:31;10.10;99.90
7331;DHT22;3706;49.198;7.064;2023-11-19T18:14:10;10.30;99.90
7331;DHT22;3706;49.198;7.064;2023-11-19T18:17:49;10.40;99.90
7331;DHT22;3706;49.198;7.064;2023-11-19T18:21:25;10.60;99.90
7331;DHT22;3706;49.198;7.064;2023-11-19T18:24:57;10.80;99.90
7331;DHT22;3706;49.198;7.064;2023-11-19T18:28:36;10.80;99.90
7331;DHT22;3706;49.198;7.064;2023-11-19T18:32:15;10.90;99.90
7331;DHT22;3706;49.198;7.064;2023-11-19T18:35:49;10.90;99.90
7331;DHT22;3706;49.198;7.064;2023-11-19T18:39:22;10.90;99.90
7331;DHT22;3706;49.198;7.064;2023-11-19T18:43:01;10.90;99.90
7331;DHT22;3706;49.198;7.064;2023-11-19T18:46:40;11.00;99.90
7331;DHT22;3706;49.198;7.064;2023-11-19T18:50:14;11.00;99.90
7331;DHT22;3706;49.198;7.064;2023-11-19T18:53:47;11.00;99.90
7331;DHT22;3706;49.198;7.064;2023-11-19T18:57:27;11.00;99.90
7331;DHT22;3706;49.198;7.064;2023-11-19T19:01:06;11.00;99.90
7331;DHT22;3706;49.198;7.064;2023-11-19T19:04:42;11.10;99.90
7331;DHT22;3706;49.198;7.064;2023-11-19T19:08:14;11.10;99.90
7331;DHT22;3706;49.198;7.064;2023-11-19T19:11:54;11.10;99.90
7331;DHT22;3706;49.198;7.064;2023-11-19T19:15:34;11.10;99.90
7331;DHT22;3706;49.198;7.064;2023-11-19T19:19:09;11.10;99.90
7331;DHT22;3706;49.198;7.064;2023-11-19T19:22:40;11.10;99.90
7331;DHT22;3706;49.198;7.064;2023-11-19T19:26:20;11.10;99.90
7331;DHT22;3706;49.198;7.064;2023-11-19T19:29:59;11.10;99.90
7331;DHT22;3706;49.198;7.064;2023-11-19T19:33:34;11.10;99.90
7331;DHT22;3706;49.198;7.064;2023-11-19T19:37:06;11.10;99.90
7331;DHT22;3706;49.198;7.064;2023-11-19T19:40:47;11.10;99.90
7331;DHT22;3706;49.198;7.064;2023-11-19T19:44:26;11.10;99.90
7331;DHT22;3706;49.198;7.064;2023-11-19T19:48:01;11.10;99.90
7331;DHT22;3706;49.198;7.064;2023-11-19T19:51:34;11.10;99.90
7331;DHT22;3706;49.198;7.064;2023-11-19T19:55:13;11.10;99.90
7331;DHT22;3706;49.198;7.064;2023-11-19T19:58:55;11.10;99.90
7331;DHT22;3706;49.198;7.064;2023-11-19T20:02:30;11.10;99.90
7331;DHT22;3706;49.198;7.064;2023-11-19T20:06:01;11.00;99.90
7331;DHT22;3706;49.198;7.064;2023-11-19T20:09:43;11.00;99.90
7331;DHT22;3706;49.198;7.064;2023-11-19T20:13:22;11.10;99.90
7331;DHT22;3706;49.198;7.064;2023-11-19T20:16:57;11.10;99.90
7331;DHT22;3706;49.198;7.064;2023-11-19T20:20:29;11.00;99.90
7331;DHT22;3706;49.198;7.064;2023-11-19T20:24:08;11.00;99.90
7331;DHT22;3706;49.198;7.064;2023-11-19T20:27:48;11.00;99.90
7331;DHT22;3706;49.198;7.064;2023-11-19T20:31:22;11.00;99.90
7331;DHT22;3706;49.198;7.064;2023-11-19T20:34:54;11.10;99.90
7331;DHT22;3706;49.198;7.064;2023-11-19T20:38:33;11.00;99.90
7331;DHT22;3706;49.198;7.064;2023-11-19T20:42:13;11.00;99.90
7331;DHT22;3706;49.198;7.064;2023-11-19T20:45:49;11.00;99.90
7331;DHT22;3706;49.198;7.064;2023-11-19T20:49:22;11.00;99.90
7331;DHT22;3706;49.198;7.064;2023-11-19T20:53:00;11.10;99.90
7331;DHT22;3706;49.198;7.064;2023-11-19T20:56:39;11.10;99.90
7331;DHT22;3706;49.198;7.064;2023-11-19T21:00:15;11.20;99.90
7331;DHT22;3706;49.198;7.064;2023-11-19T21:03:49;11.20;99.90
7331;DHT22;3706;49.198;7.064;2023-11-19T21:07:28;11.20;99.90
7331;DHT22;3706;49.198;7.064;2023-11-19T21:11:09;11.20;99.90
7331;DHT22;3706;49.198;7.064;2023-11-19T21:14:45;11.10;99.90
7331;DHT22;3706;49.198;7.064;2023-11-19T21:18:16;11.10;99.90
7331;DHT22;3706;49.198;7.064;2023-11-19T21:21:56;11.10;99.90
7331;DHT22;3706;49.198;7.064;2023-11-19T21:25:36;11.10;99.90
7331;DHT22;3706;49.198;7.064;2023-11-19T21:29:11;11.00;99.90
7331;DHT22;3706;49.198;7.064;2023-11-19T21:32:42;11.00;99.90
7331;DHT22;3706;49.198;7.064;2023-11-19T21:36:21;11.00;99.90
7331;DHT22;3706;49.198;7.064;2023-11-19T21:40:04;11.10;99.90
7331;DHT22;3706;49.198;7.064;2023-11-19T21:43:39;11.10;99.90
7331;DHT22;3706;49.198;7.064;2023-11-19T21:47:11;11.00;99.90
7331;DHT22;3706;49.198;7.064;2023-11-19T21:50:50;11.00;99.90
7331;DHT22;3706;49.198;7.064;2023-11-19T21:54:29;10.90;99.90
7331;DHT22;3706;49.198;7.064;2023-11-19T21:58:04;11.00;99.90
7331;DHT22;3706;49.198;7.064;2023-11-19T22:01:36;11.00;99.90
7331;DHT22;3706;49.198;7.064;2023-11-19T22:05:15;11.00;99.90
7331;DHT22;3706;49.198;7.064;2023-11-19T22:08:55;10.90;99.90
7331;DHT22;3706;49.198;7.064;2023-11-19T22:12:29;10.90;99.90
7331;DHT22;3706;49.198;7.064;2023-11-19T22:16:02;10.90;99.90
7331;DHT22;3706;49.198;7.064;2023-11-19T22:19:41;10.90;99.90
7331;DHT22;3706;49.198;7.064;2023-11-19T22:23:20;10.90;99.90
7331;DHT22;3706;49.198;7.064;2023-11-19T22:26:54;10.90;99.90
7331;DHT22;3706;49.198;7.064;2023-11-19T22:30:25;10.90;99.90
7331;DHT22;3706;49.198;7.064;2023-11-19T22:34:06;10.90;99.90
7331;DHT22;3706;49.198;7.064;2023-11-19T22:37:45;10.90;99.90
7331;DHT22;3706;49.198;7.064;2023-11-19T22:41:20;10.90;99.90
7331;DHT22;3706;49.198;7.064;2023-11-19T22:44:51;10.80;99.90
7331;DHT22;3706;49.198;7.064;2023-11-19T22:48:30;10.80;99.90
7331;DHT22;3706;49.198;7.064;2023-11-19T22:52:11;10.90;99.90
7331;DHT22;3706;49.198;7.064;2023-11-19T22:55:45;10.90;99.90
7331;DHT22;3706;49.198;7.064;2023-11-19T22:59:16;10.80;99.90
7331;DHT22;3706;49.198;7.064;2023-11-19T23:02:56;10.90;99.90
7331;DHT22;3706;49.198;7.064;2023-11-19T23:06:35;10.90;99.90
7331;DHT22;3706;49.198;7.064;2023-11-19T23:10:10;10.90;99.90
7331;DHT22;3706;49.198;7.064;2023-11-19T23:13:42;10.90;99.90
7331;DHT22;3706;49.198;7.064;2023-11-19T23:17:21;10.90;99.90
7331;DHT22;3706;49.198;7.064;2023-11-19T23:21:04;10.90;99.90
7331;DHT22;3706;49.198;7.064;2023-11-19T23:24:38;10.90;99.90
7331;DHT22;3706;49.198;7.064;2023-11-19T23:28:11;10.80;99.90
7331;DHT22;3706;49.198;7.064;2023-11-19T23:31:52;10.90;99.90
7331;DHT22;3706;49.198;7.064;2023-11-19T23:35:31;10.90;99.90
7331;DHT22;3706;49.198;7.064;2023-11-19T23:39:07;10.90;99.90
7331;DHT22;3706;49.198;7.064;2023-11-19T23:42:38;11.00;99.90